sensor_id;sensor_type;location;lat;lon;timestamp;P1;durP1;ratioP1;P2;durP2;ratioP2
69894;SDS011;57172;52.034;5.090;2022-07-17T00:00:40;4.40;;;1.92;;
69894;SDS011;57172;52.034;5.090;2022-07-17T00:03:15;4.53;;;1.88;;
69894;SDS011;57172;52.034;5.090;2022-07-17T00:05:43;4.83;;;1.60;;
69894;SDS011;57172;52.034;5.090;2022-07-17T00:08:11;6.30;;;1.70;;
69894;SDS011;57172;52.034;5.090;2022-07-17T00:10:39;3.13;;;1.58;;
69894;SDS011;57172;52.034;5.090;2022-07-17T00:13:08;5.20;;;1.70;;
69894;SDS011;57172;52.034;5.090;2022-07-17T00:15:36;7.10;;;1.88;;
69894;SDS011;57172;52.034;5.090;2022-07-17T00:18:03;5.00;;;1.90;;
69894;SDS011;57172;52.034;5.090;2022-07-17T00:20:33;4.45;;;1.70;;
69894;SDS011;57172;52.034;5.090;2022-07-17T00:23:01;4.78;;;1.70;;
69894;SDS011;57172;52.034;5.090;2022-07-17T00:25:28;5.45;;;1.70;;
69894;SDS011;57172;52.034;5.090;2022-07-17T00:27:55;4.82;;;1.80;;
69894;SDS011;57172;52.034;5.090;2022-07-17T00:30:22;5.07;;;1.80;;
69894;SDS011;57172;52.034;5.090;2022-07-17T00:32:49;4.78;;;2.00;;
69894;SDS011;57172;52.034;5.090;2022-07-17T00:35:17;6.32;;;1.98;;
69894;SDS011;57172;52.034;5.090;2022-07-17T00:37:46;5.85;;;1.90;;
69894;SDS011;57172;52.034;5.090;2022-07-17T00:40:16;4.75;;;2.00;;
69894;SDS011;57172;52.034;5.090;2022-07-17T00:42:48;6.67;;;1.90;;
69894;SDS011;57172;52.034;5.090;2022-07-17T00:45:17;5.80;;;1.70;;
69894;SDS011;57172;52.034;5.090;2022-07-17T00:47:55;4.90;;;2.00;;
69894;SDS011;57172;52.034;5.090;2022-07-17T00:50:34;5.43;;;1.90;;
69894;SDS011;57172;52.034;5.090;2022-07-17T00:53:03;7.05;;;2.10;;
69894;SDS011;57172;52.034;5.090;2022-07-17T00:55:30;3.33;;;1.90;;
69894;SDS011;57172;52.034;5.090;2022-07-17T00:58:22;4.75;;;2.10;;
69894;SDS011;57172;52.034;5.090;2022-07-17T01:00:51;6.20;;;1.90;;
69894;SDS011;57172;52.034;5.090;2022-07-17T01:03:20;4.78;;;1.83;;
69894;SDS011;57172;52.034;5.090;2022-07-17T01:05:49;5.63;;;1.90;;
69894;SDS011;57172;52.034;5.090;2022-07-17T01:08:16;6.43;;;2.00;;
69894;SDS011;57172;52.034;5.090;2022-07-17T01:10:43;6.20;;;1.85;;
69894;SDS011;57172;52.034;5.090;2022-07-17T01:13:11;5.28;;;2.10;;
69894;SDS011;57172;52.034;5.090;2022-07-17T01:15:39;4.13;;;1.98;;
69894;SDS011;57172;52.034;5.090;2022-07-17T01:18:08;5.15;;;2.00;;
69894;SDS011;57172;52.034;5.090;2022-07-17T01:20:38;5.87;;;1.90;;
69894;SDS011;57172;52.034;5.090;2022-07-17T01:23:08;4.40;;;2.08;;
69894;SDS011;57172;52.034;5.090;2022-07-17T01:25:36;4.38;;;1.90;;
69894;SDS011;57172;52.034;5.090;2022-07-17T01:28:04;6.28;;;2.10;;
69894;SDS011;57172;52.034;5.090;2022-07-17T01:30:32;5.00;;;2.30;;
69894;SDS011;57172;52.034;5.090;2022-07-17T01:32:59;7.17;;;2.00;;
69894;SDS011;57172;52.034;5.090;2022-07-17T01:35:27;5.65;;;2.00;;
69894;SDS011;57172;52.034;5.090;2022-07-17T01:37:55;5.90;;;1.80;;
69894;SDS011;57172;52.034;5.090;2022-07-17T01:40:21;3.80;;;2.03;;
69894;SDS011;57172;52.034;5.090;2022-07-17T01:42:49;7.28;;;2.05;;
69894;SDS011;57172;52.034;5.090;2022-07-17T01:45:17;6.17;;;1.90;;
69894;SDS011;57172;52.034;5.090;2022-07-17T01:47:46;4.47;;;2.00;;
69894;SDS011;57172;52.034;5.090;2022-07-17T01:50:14;7.50;;;2.10;;
69894;SDS011;57172;52.034;5.090;2022-07-17T01:52:42;4.60;;;2.08;;
69894;SDS011;57172;52.034;5.090;2022-07-17T01:55:11;6.97;;;1.92;;
69894;SDS011;57172;52.034;5.090;2022-07-17T01:57:39;5.23;;;1.90;;
69894;SDS011;57172;52.034;5.090;2022-07-17T02:00:08;6.25;;;1.90;;
69894;SDS011;57172;52.034;5.090;2022-07-17T02:02:38;5.78;;;2.10;;
69894;SDS011;57172;52.034;5.090;2022-07-17T02:05:05;5.00;;;2.05;;
69894;SDS011;57172;52.034;5.090;2022-07-17T02:07:34;6.13;;;2.33;;
69894;SDS011;57172;52.034;5.090;2022-07-17T02:10:03;4.17;;;1.93;;
69894;SDS011;57172;52.034;5.090;2022-07-17T02:12:30;4.43;;;2.10;;
69894;SDS011;57172;52.034;5.090;2022-07-17T02:14:57;5.43;;;2.08;;
69894;SDS011;57172;52.034;5.090;2022-07-17T02:17:23;6.47;;;2.08;;
69894;SDS011;57172;52.034;5.090;2022-07-17T02:19:50;4.35;;;2.22;;
69894;SDS011;57172;52.034;5.090;2022-07-17T02:22:17;6.70;;;2.03;;
69894;SDS011;57172;52.034;5.090;2022-07-17T02:24:44;5.22;;;2.00;;
69894;SDS011;57172;52.034;5.090;2022-07-17T02:27:11;6.80;;;2.13;;
69894;SDS011;57172;52.034;5.090;2022-07-17T02:29:38;4.82;;;2.10;;
69894;SDS011;57172;52.034;5.090;2022-07-17T02:32:05;5.63;;;2.00;;
69894;SDS011;57172;52.034;5.090;2022-07-17T02:34:32;4.13;;;1.80;;
69894;SDS011;57172;52.034;5.090;2022-07-17T02:36:59;4.75;;;2.05;;
69894;SDS011;57172;52.034;5.090;2022-07-17T02:39:25;6.32;;;1.92;;
69894;SDS011;57172;52.034;5.090;2022-07-17T02:41:52;5.50;;;2.22;;
69894;SDS011;57172;52.034;5.090;2022-07-17T02:44:19;6.15;;;1.95;;
69894;SDS011;57172;52.034;5.090;2022-07-17T02:46:46;3.90;;;2.10;;
69894;SDS011;57172;52.034;5.090;2022-07-17T02:49:13;8.55;;;2.20;;
69894;SDS011;57172;52.034;5.090;2022-07-17T02:51:40;6.05;;;2.30;;
69894;SDS011;57172;52.034;5.090;2022-07-17T02:54:07;7.00;;;2.03;;
69894;SDS011;57172;52.034;5.090;2022-07-17T02:56:33;5.22;;;1.88;;
69894;SDS011;57172;52.034;5.090;2022-07-17T02:59:00;6.13;;;2.00;;
69894;SDS011;57172;52.034;5.090;2022-07-17T03:01:27;3.80;;;1.90;;
69894;SDS011;57172;52.034;5.090;2022-07-17T03:03:54;6.43;;;2.00;;
69894;SDS011;57172;52.034;5.090;2022-07-17T03:06:21;4.25;;;1.77;;
69894;SDS011;57172;52.034;5.090;2022-07-17T03:08:48;5.05;;;2.20;;
69894;SDS011;57172;52.034;5.090;2022-07-17T03:11:16;6.50;;;2.20;;
69894;SDS011;57172;52.034;5.090;2022-07-17T03:13:43;7.38;;;2.30;;
69894;SDS011;57172;52.034;5.090;2022-07-17T03:16:10;3.95;;;2.00;;
69894;SDS011;57172;52.034;5.090;2022-07-17T03:18:37;8.00;;;2.00;;
69894;SDS011;57172;52.034;5.090;2022-07-17T03:21:04;5.50;;;2.22;;
69894;SDS011;57172;52.034;5.090;2022-07-17T03:23:31;5.10;;;2.00;;
69894;SDS011;57172;52.034;5.090;2022-07-17T03:25:58;6.80;;;2.10;;
69894;SDS011;57172;52.034;5.090;2022-07-17T03:28:25;7.70;;;2.28;;
69894;SDS011;57172;52.034;5.090;2022-07-17T03:30:52;7.82;;;2.30;;
69894;SDS011;57172;52.034;5.090;2022-07-17T03:33:19;5.22;;;2.00;;
69894;SDS011;57172;52.034;5.090;2022-07-17T03:35:46;5.13;;;2.17;;
69894;SDS011;57172;52.034;5.090;2022-07-17T03:38:13;6.88;;;2.50;;
69894;SDS011;57172;52.034;5.090;2022-07-17T03:40:40;7.47;;;2.40;;
69894;SDS011;57172;52.034;5.090;2022-07-17T03:43:07;5.80;;;2.10;;
69894;SDS011;57172;52.034;5.090;2022-07-17T03:45:33;5.40;;;2.20;;
69894;SDS011;57172;52.034;5.090;2022-07-17T03:48:00;10.07;;;2.17;;
69894;SDS011;57172;52.034;5.090;2022-07-17T03:50:27;5.60;;;2.08;;
69894;SDS011;57172;52.034;5.090;2022-07-17T03:52:54;6.38;;;2.20;;
69894;SDS011;57172;52.034;5.090;2022-07-17T03:55:22;5.05;;;2.25;;
69894;SDS011;57172;52.034;5.090;2022-07-17T03:57:49;6.32;;;2.42;;
69894;SDS011;57172;52.034;5.090;2022-07-17T04:00:16;5.93;;;2.20;;
69894;SDS011;57172;52.034;5.090;2022-07-17T04:02:44;5.32;;;2.22;;
69894;SDS011;57172;52.034;5.090;2022-07-17T04:05:11;4.43;;;2.10;;
69894;SDS011;57172;52.034;5.090;2022-07-17T04:07:38;5.07;;;2.10;;
69894;SDS011;57172;52.034;5.090;2022-07-17T04:10:07;5.60;;;2.10;;
69894;SDS011;57172;52.034;5.090;2022-07-17T04:12:35;3.67;;;1.90;;
69894;SDS011;57172;52.034;5.090;2022-07-17T04:15:03;7.20;;;2.08;;
69894;SDS011;57172;52.034;5.090;2022-07-17T04:17:31;5.80;;;2.00;;
69894;SDS011;57172;52.034;5.090;2022-07-17T04:19:58;7.28;;;2.00;;
69894;SDS011;57172;52.034;5.090;2022-07-17T04:22:25;6.13;;;2.28;;
69894;SDS011;57172;52.034;5.090;2022-07-17T04:24:52;5.00;;;1.90;;
69894;SDS011;57172;52.034;5.090;2022-07-17T04:27:19;8.95;;;2.25;;
69894;SDS011;57172;52.034;5.090;2022-07-17T04:29:46;7.07;;;2.20;;
69894;SDS011;57172;52.034;5.090;2022-07-17T04:32:13;5.38;;;2.05;;
69894;SDS011;57172;52.034;5.090;2022-07-17T04:34:40;5.85;;;2.00;;
69894;SDS011;57172;52.034;5.090;2022-07-17T04:37:06;5.90;;;2.20;;
69894;SDS011;57172;52.034;5.090;2022-07-17T04:39:33;6.95;;;1.90;;
69894;SDS011;57172;52.034;5.090;2022-07-17T04:42:00;5.90;;;2.40;;
69894;SDS011;57172;52.034;5.090;2022-07-17T04:44:27;5.43;;;2.20;;
69894;SDS011;57172;52.034;5.090;2022-07-17T04:46:54;8.35;;;2.20;;
69894;SDS011;57172;52.034;5.090;2022-07-17T04:49:22;7.10;;;1.90;;
69894;SDS011;57172;52.034;5.090;2022-07-17T04:51:49;8.38;;;2.10;;
69894;SDS011;57172;52.034;5.090;2022-07-17T04:54:16;6.10;;;2.10;;
69894;SDS011;57172;52.034;5.090;2022-07-17T04:56:43;4.93;;;1.70;;
69894;SDS011;57172;52.034;5.090;2022-07-17T04:59:10;5.22;;;2.05;;
69894;SDS011;57172;52.034;5.090;2022-07-17T05:01:37;7.93;;;1.90;;
69894;SDS011;57172;52.034;5.090;2022-07-17T05:04:04;6.95;;;2.10;;
69894;SDS011;57172;52.034;5.090;2022-07-17T05:06:31;5.53;;;2.15;;
69894;SDS011;57172;52.034;5.090;2022-07-17T05:08:58;5.78;;;1.80;;
69894;SDS011;57172;52.034;5.090;2022-07-17T05:11:24;6.65;;;1.85;;
69894;SDS011;57172;52.034;5.090;2022-07-17T05:13:52;7.27;;;1.90;;
69894;SDS011;57172;52.034;5.090;2022-07-17T05:16:19;4.68;;;1.88;;
69894;SDS011;57172;52.034;5.090;2022-07-17T05:18:46;5.13;;;2.00;;
69894;SDS011;57172;52.034;5.090;2022-07-17T05:21:13;4.07;;;1.70;;
69894;SDS011;57172;52.034;5.090;2022-07-17T05:23:40;5.00;;;1.80;;
69894;SDS011;57172;52.034;5.090;2022-07-17T05:26:07;4.83;;;1.93;;
69894;SDS011;57172;52.034;5.090;2022-07-17T05:28:34;6.35;;;1.88;;
69894;SDS011;57172;52.034;5.090;2022-07-17T05:31:04;4.55;;;1.95;;
69894;SDS011;57172;52.034;5.090;2022-07-17T05:33:31;8.43;;;1.88;;
69894;SDS011;57172;52.034;5.090;2022-07-17T05:35:59;5.55;;;2.00;;
69894;SDS011;57172;52.034;5.090;2022-07-17T05:38:25;5.40;;;1.80;;
69894;SDS011;57172;52.034;5.090;2022-07-17T05:40:52;6.63;;;1.90;;
69894;SDS011;57172;52.034;5.090;2022-07-17T05:43:19;6.43;;;1.60;;
69894;SDS011;57172;52.034;5.090;2022-07-17T05:45:46;7.38;;;1.85;;
69894;SDS011;57172;52.034;5.090;2022-07-17T05:48:13;7.95;;;2.15;;
69894;SDS011;57172;52.034;5.090;2022-07-17T05:50:40;5.17;;;1.90;;
69894;SDS011;57172;52.034;5.090;2022-07-17T05:53:07;4.35;;;2.00;;
69894;SDS011;57172;52.034;5.090;2022-07-17T05:55:34;7.03;;;2.10;;
69894;SDS011;57172;52.034;5.090;2022-07-17T05:58:00;6.60;;;2.17;;
69894;SDS011;57172;52.034;5.090;2022-07-17T06:00:27;6.50;;;2.00;;
69894;SDS011;57172;52.034;5.090;2022-07-17T06:02:55;4.50;;;1.80;;
69894;SDS011;57172;52.034;5.090;2022-07-17T06:05:22;7.03;;;2.20;;
69894;SDS011;57172;52.034;5.090;2022-07-17T06:07:49;5.60;;;2.20;;
69894;SDS011;57172;52.034;5.090;2022-07-17T06:10:15;7.40;;;2.10;;
69894;SDS011;57172;52.034;5.090;2022-07-17T06:12:43;6.45;;;2.17;;
69894;SDS011;57172;52.034;5.090;2022-07-17T06:15:10;5.97;;;2.30;;
69894;SDS011;57172;52.034;5.090;2022-07-17T06:17:38;7.97;;;2.03;;
69894;SDS011;57172;52.034;5.090;2022-07-17T06:20:09;7.43;;;1.90;;
69894;SDS011;57172;52.034;5.090;2022-07-17T06:22:37;7.22;;;1.80;;
69894;SDS011;57172;52.034;5.090;2022-07-17T06:25:04;5.43;;;1.77;;
69894;SDS011;57172;52.034;5.090;2022-07-17T06:27:31;4.10;;;1.70;;
69894;SDS011;57172;52.034;5.090;2022-07-17T06:29:58;6.95;;;1.70;;
69894;SDS011;57172;52.034;5.090;2022-07-17T06:32:25;5.03;;;1.95;;
69894;SDS011;57172;52.034;5.090;2022-07-17T06:34:53;5.30;;;1.75;;
69894;SDS011;57172;52.034;5.090;2022-07-17T06:37:19;7.68;;;1.90;;
69894;SDS011;57172;52.034;5.090;2022-07-17T06:39:46;4.03;;;1.47;;
69894;SDS011;57172;52.034;5.090;2022-07-17T06:42:13;6.25;;;1.70;;
69894;SDS011;57172;52.034;5.090;2022-07-17T06:44:40;5.00;;;1.70;;
69894;SDS011;57172;52.034;5.090;2022-07-17T06:47:07;7.10;;;1.48;;
69894;SDS011;57172;52.034;5.090;2022-07-17T06:49:34;5.15;;;1.50;;
69894;SDS011;57172;52.034;5.090;2022-07-17T06:52:01;8.17;;;1.60;;
69894;SDS011;57172;52.034;5.090;2022-07-17T06:54:28;5.20;;;1.70;;
69894;SDS011;57172;52.034;5.090;2022-07-17T06:56:55;7.63;;;1.60;;
69894;SDS011;57172;52.034;5.090;2022-07-17T06:59:22;7.97;;;1.80;;
69894;SDS011;57172;52.034;5.090;2022-07-17T07:01:48;6.50;;;2.13;;
69894;SDS011;57172;52.034;5.090;2022-07-17T07:04:15;6.23;;;1.73;;
69894;SDS011;57172;52.034;5.090;2022-07-17T07:06:42;3.83;;;1.55;;
69894;SDS011;57172;52.034;5.090;2022-07-17T07:09:09;6.60;;;1.60;;
69894;SDS011;57172;52.034;5.090;2022-07-17T07:11:42;5.43;;;1.60;;
69894;SDS011;57172;52.034;5.090;2022-07-17T07:14:09;6.40;;;1.50;;
69894;SDS011;57172;52.034;5.090;2022-07-17T07:16:36;3.80;;;1.60;;
69894;SDS011;57172;52.034;5.090;2022-07-17T07:19:03;4.68;;;1.67;;
69894;SDS011;57172;52.034;5.090;2022-07-17T07:21:30;6.78;;;1.60;;
69894;SDS011;57172;52.034;5.090;2022-07-17T07:23:57;5.88;;;1.40;;
69894;SDS011;57172;52.034;5.090;2022-07-17T07:26:24;4.88;;;1.40;;
69894;SDS011;57172;52.034;5.090;2022-07-17T07:28:51;7.20;;;1.40;;
69894;SDS011;57172;52.034;5.090;2022-07-17T07:31:18;7.15;;;1.30;;
69894;SDS011;57172;52.034;5.090;2022-07-17T07:33:45;3.55;;;1.50;;
69894;SDS011;57172;52.034;5.090;2022-07-17T07:36:12;5.80;;;1.40;;
69894;SDS011;57172;52.034;5.090;2022-07-17T07:38:44;4.40;;;1.50;;
69894;SDS011;57172;52.034;5.090;2022-07-17T07:41:12;6.80;;;1.60;;
69894;SDS011;57172;52.034;5.090;2022-07-17T07:43:39;3.88;;;1.50;;
69894;SDS011;57172;52.034;5.090;2022-07-17T07:46:06;4.90;;;1.40;;
69894;SDS011;57172;52.034;5.090;2022-07-17T07:48:33;8.63;;;1.70;;
69894;SDS011;57172;52.034;5.090;2022-07-17T07:51:00;5.60;;;1.60;;
69894;SDS011;57172;52.034;5.090;2022-07-17T07:53:27;5.73;;;1.73;;
69894;SDS011;57172;52.034;5.090;2022-07-17T07:55:54;4.03;;;1.70;;
69894;SDS011;57172;52.034;5.090;2022-07-17T07:58:21;6.43;;;1.52;;
69894;SDS011;57172;52.034;5.090;2022-07-17T08:00:48;5.00;;;1.60;;
69894;SDS011;57172;52.034;5.090;2022-07-17T08:03:15;7.90;;;1.58;;
69894;SDS011;57172;52.034;5.090;2022-07-17T08:05:50;5.07;;;1.60;;
69894;SDS011;57172;52.034;5.090;2022-07-17T08:08:17;5.32;;;1.90;;
69894;SDS011;57172;52.034;5.090;2022-07-17T08:10:43;4.95;;;1.65;;
69894;SDS011;57172;52.034;5.090;2022-07-17T08:13:10;6.93;;;1.60;;
69894;SDS011;57172;52.034;5.090;2022-07-17T08:15:37;4.70;;;1.48;;
69894;SDS011;57172;52.034;5.090;2022-07-17T08:18:04;4.93;;;1.40;;
69894;SDS011;57172;52.034;5.090;2022-07-17T08:20:32;4.25;;;1.52;;
69894;SDS011;57172;52.034;5.090;2022-07-17T08:22:59;5.53;;;1.52;;
69894;SDS011;57172;52.034;5.090;2022-07-17T08:25:31;4.38;;;1.60;;
69894;SDS011;57172;52.034;5.090;2022-07-17T08:27:58;4.55;;;1.60;;
69894;SDS011;57172;52.034;5.090;2022-07-17T08:30:26;4.20;;;1.50;;
69894;SDS011;57172;52.034;5.090;2022-07-17T08:32:53;5.25;;;1.60;;
69894;SDS011;57172;52.034;5.090;2022-07-17T08:35:20;7.43;;;1.50;;
69894;SDS011;57172;52.034;5.090;2022-07-17T08:37:48;8.20;;;1.60;;
69894;SDS011;57172;52.034;5.090;2022-07-17T08:40:21;3.85;;;1.52;;
69894;SDS011;57172;52.034;5.090;2022-07-17T08:42:50;4.87;;;1.40;;
69894;SDS011;57172;52.034;5.090;2022-07-17T08:45:17;5.78;;;1.92;;
69894;SDS011;57172;52.034;5.090;2022-07-17T08:47:45;4.68;;;1.75;;
69894;SDS011;57172;52.034;5.090;2022-07-17T08:50:12;6.65;;;1.70;;
69894;SDS011;57172;52.034;5.090;2022-07-17T08:52:40;5.28;;;1.70;;
69894;SDS011;57172;52.034;5.090;2022-07-17T08:55:11;3.07;;;1.50;;
69894;SDS011;57172;52.034;5.090;2022-07-17T08:57:40;4.97;;;1.50;;
69894;SDS011;57172;52.034;5.090;2022-07-17T09:00:15;4.28;;;1.67;;
69894;SDS011;57172;52.034;5.090;2022-07-17T09:02:56;6.18;;;1.50;;
69894;SDS011;57172;52.034;5.090;2022-07-17T09:05:25;4.32;;;1.70;;
69894;SDS011;57172;52.034;5.090;2022-07-17T09:07:54;3.07;;;1.50;;
69894;SDS011;57172;52.034;5.090;2022-07-17T09:10:38;5.32;;;1.65;;
69894;SDS011;57172;52.034;5.090;2022-07-17T09:15:41;4.53;;;1.55;;
69894;SDS011;57172;52.034;5.090;2022-07-17T09:18:11;4.72;;;1.40;;
69894;SDS011;57172;52.034;5.090;2022-07-17T09:20:45;3.33;;;1.30;;
69894;SDS011;57172;52.034;5.090;2022-07-17T09:23:14;4.30;;;1.33;;
69894;SDS011;57172;52.034;5.090;2022-07-17T09:25:42;5.05;;;1.40;;
69894;SDS011;57172;52.034;5.090;2022-07-17T09:28:11;6.03;;;1.40;;
69894;SDS011;57172;52.034;5.090;2022-07-17T09:30:41;3.72;;;1.30;;
69894;SDS011;57172;52.034;5.090;2022-07-17T09:33:13;4.77;;;1.37;;
69894;SDS011;57172;52.034;5.090;2022-07-17T09:35:45;2.45;;;1.30;;
69894;SDS011;57172;52.034;5.090;2022-07-17T09:38:12;3.92;;;1.50;;
69894;SDS011;57172;52.034;5.090;2022-07-17T09:41:00;4.70;;;1.40;;
69894;SDS011;57172;52.034;5.090;2022-07-17T09:43:42;3.70;;;1.55;;
69894;SDS011;57172;52.034;5.090;2022-07-17T09:46:13;4.83;;;1.40;;
69894;SDS011;57172;52.034;5.090;2022-07-17T09:48:51;5.00;;;1.50;;
69894;SDS011;57172;52.034;5.090;2022-07-17T09:51:24;4.68;;;1.30;;
69894;SDS011;57172;52.034;5.090;2022-07-17T09:53:53;2.30;;;1.30;;
69894;SDS011;57172;52.034;5.090;2022-07-17T09:56:23;5.70;;;1.55;;
69894;SDS011;57172;52.034;5.090;2022-07-17T09:58:53;4.50;;;1.40;;
69894;SDS011;57172;52.034;5.090;2022-07-17T10:01:23;5.07;;;1.20;;
69894;SDS011;57172;52.034;5.090;2022-07-17T10:03:50;3.80;;;1.50;;
69894;SDS011;57172;52.034;5.090;2022-07-17T10:06:23;4.25;;;1.55;;
69894;SDS011;57172;52.034;5.090;2022-07-17T10:08:53;4.82;;;1.35;;
69894;SDS011;57172;52.034;5.090;2022-07-17T10:11:21;3.10;;;1.30;;
69894;SDS011;57172;52.034;5.090;2022-07-17T10:13:51;3.20;;;1.30;;
69894;SDS011;57172;52.034;5.090;2022-07-17T10:16:27;4.50;;;1.50;;
69894;SDS011;57172;52.034;5.090;2022-07-17T10:18:56;5.35;;;1.40;;
69894;SDS011;57172;52.034;5.090;2022-07-17T10:21:25;3.38;;;1.40;;
69894;SDS011;57172;52.034;5.090;2022-07-17T10:31:58;4.72;;;1.50;;
69894;SDS011;57172;52.034;5.090;2022-07-17T10:34:46;3.47;;;1.50;;
69894;SDS011;57172;52.034;5.090;2022-07-17T10:39:55;5.22;;;1.65;;
69894;SDS011;57172;52.034;5.090;2022-07-17T10:45:17;6.80;;;1.60;;
69894;SDS011;57172;52.034;5.090;2022-07-17T10:50:13;5.23;;;1.60;;
69894;SDS011;57172;52.034;5.090;2022-07-17T10:52:41;3.53;;;1.52;;
69894;SDS011;57172;52.034;5.090;2022-07-17T10:55:18;4.53;;;1.60;;
69894;SDS011;57172;52.034;5.090;2022-07-17T10:57:46;3.58;;;1.50;;
69894;SDS011;57172;52.034;5.090;2022-07-17T11:00:15;4.07;;;1.65;;
69894;SDS011;57172;52.034;5.090;2022-07-17T11:02:44;4.53;;;1.60;;
69894;SDS011;57172;52.034;5.090;2022-07-17T11:05:12;3.35;;;1.60;;
69894;SDS011;57172;52.034;5.090;2022-07-17T11:07:54;3.95;;;1.67;;
69894;SDS011;57172;52.034;5.090;2022-07-17T11:10:23;3.47;;;1.60;;
69894;SDS011;57172;52.034;5.090;2022-07-17T11:12:55;3.78;;;1.50;;
69894;SDS011;57172;52.034;5.090;2022-07-17T11:15:40;4.63;;;1.50;;
69894;SDS011;57172;52.034;5.090;2022-07-17T11:18:15;4.05;;;1.60;;
69894;SDS011;57172;52.034;5.090;2022-07-17T11:20:48;4.95;;;1.70;;
69894;SDS011;57172;52.034;5.090;2022-07-17T11:23:21;5.53;;;1.83;;
69894;SDS011;57172;52.034;5.090;2022-07-17T11:25:57;6.05;;;1.75;;
69894;SDS011;57172;52.034;5.090;2022-07-17T11:28:32;4.57;;;1.83;;
69894;SDS011;57172;52.034;5.090;2022-07-17T11:31:01;7.38;;;1.80;;
69894;SDS011;57172;52.034;5.090;2022-07-17T11:33:29;3.40;;;1.65;;
69894;SDS011;57172;52.034;5.090;2022-07-17T11:35:57;3.50;;;1.77;;
69894;SDS011;57172;52.034;5.090;2022-07-17T11:38:24;3.80;;;1.90;;
69894;SDS011;57172;52.034;5.090;2022-07-17T11:40:53;4.70;;;1.80;;
69894;SDS011;57172;52.034;5.090;2022-07-17T11:43:27;3.33;;;1.80;;
69894;SDS011;57172;52.034;5.090;2022-07-17T11:45:54;5.28;;;1.95;;
69894;SDS011;57172;52.034;5.090;2022-07-17T11:48:22;4.88;;;1.80;;
69894;SDS011;57172;52.034;5.090;2022-07-17T11:50:53;7.32;;;1.80;;
69894;SDS011;57172;52.034;5.090;2022-07-17T11:53:30;2.90;;;1.60;;
69894;SDS011;57172;52.034;5.090;2022-07-17T11:55:58;4.28;;;1.73;;
69894;SDS011;57172;52.034;5.090;2022-07-17T11:58:25;6.45;;;2.00;;
69894;SDS011;57172;52.034;5.090;2022-07-17T12:01:02;3.30;;;1.67;;
69894;SDS011;57172;52.034;5.090;2022-07-17T12:03:30;4.00;;;1.70;;
69894;SDS011;57172;52.034;5.090;2022-07-17T12:05:57;4.70;;;1.70;;
69894;SDS011;57172;52.034;5.090;2022-07-17T12:08:24;3.05;;;1.80;;
69894;SDS011;57172;52.034;5.090;2022-07-17T12:11:02;3.65;;;1.63;;
69894;SDS011;57172;52.034;5.090;2022-07-17T12:13:40;4.25;;;1.77;;
69894;SDS011;57172;52.034;5.090;2022-07-17T12:21:58;3.78;;;1.90;;
69894;SDS011;57172;52.034;5.090;2022-07-17T12:24:31;3.67;;;1.90;;
69894;SDS011;57172;52.034;5.090;2022-07-17T12:27:00;3.83;;;1.90;;
69894;SDS011;57172;52.034;5.090;2022-07-17T12:29:29;3.20;;;2.08;;
69894;SDS011;57172;52.034;5.090;2022-07-17T12:32:09;3.67;;;2.10;;
69894;SDS011;57172;52.034;5.090;2022-07-17T12:34:39;5.05;;;2.13;;
69894;SDS011;57172;52.034;5.090;2022-07-17T12:37:15;3.20;;;1.80;;
69894;SDS011;57172;52.034;5.090;2022-07-17T12:39:46;4.38;;;1.90;;
69894;SDS011;57172;52.034;5.090;2022-07-17T12:42:15;4.80;;;1.90;;
69894;SDS011;57172;52.034;5.090;2022-07-17T12:44:43;4.07;;;2.10;;
69894;SDS011;57172;52.034;5.090;2022-07-17T12:47:10;6.20;;;2.08;;
69894;SDS011;57172;52.034;5.090;2022-07-17T12:49:37;4.82;;;1.92;;
69894;SDS011;57172;52.034;5.090;2022-07-17T12:52:07;4.00;;;2.17;;
69894;SDS011;57172;52.034;5.090;2022-07-17T12:54:34;5.38;;;2.20;;
69894;SDS011;57172;52.034;5.090;2022-07-17T12:57:01;4.03;;;2.03;;
69894;SDS011;57172;52.034;5.090;2022-07-17T12:59:28;4.53;;;2.40;;
69894;SDS011;57172;52.034;5.090;2022-07-17T13:01:55;4.55;;;2.50;;
69894;SDS011;57172;52.034;5.090;2022-07-17T13:04:23;5.80;;;2.42;;
69894;SDS011;57172;52.034;5.090;2022-07-17T13:06:50;3.95;;;2.53;;
69894;SDS011;57172;52.034;5.090;2022-07-17T13:09:18;4.93;;;2.87;;
69894;SDS011;57172;52.034;5.090;2022-07-17T13:11:49;4.30;;;2.80;;
69894;SDS011;57172;52.034;5.090;2022-07-17T13:14:18;4.60;;;2.40;;
69894;SDS011;57172;52.034;5.090;2022-07-17T13:16:45;5.60;;;2.58;;
69894;SDS011;57172;52.034;5.090;2022-07-17T13:19:12;5.70;;;2.45;;
69894;SDS011;57172;52.034;5.090;2022-07-17T13:21:39;5.40;;;2.40;;
69894;SDS011;57172;52.034;5.090;2022-07-17T13:24:06;4.82;;;2.38;;
69894;SDS011;57172;52.034;5.090;2022-07-17T13:26:33;6.75;;;2.60;;
69894;SDS011;57172;52.034;5.090;2022-07-17T13:29:01;5.35;;;2.40;;
69894;SDS011;57172;52.034;5.090;2022-07-17T13:31:28;4.95;;;2.60;;
69894;SDS011;57172;52.034;5.090;2022-07-17T13:33:55;4.60;;;2.27;;
69894;SDS011;57172;52.034;5.090;2022-07-17T13:36:22;5.93;;;2.40;;
69894;SDS011;57172;52.034;5.090;2022-07-17T13:38:48;6.50;;;2.85;;
69894;SDS011;57172;52.034;5.090;2022-07-17T13:41:16;5.47;;;2.80;;
69894;SDS011;57172;52.034;5.090;2022-07-17T13:43:43;5.97;;;2.92;;
69894;SDS011;57172;52.034;5.090;2022-07-17T13:46:10;5.07;;;2.90;;
69894;SDS011;57172;52.034;5.090;2022-07-17T13:48:37;5.10;;;3.00;;
69894;SDS011;57172;52.034;5.090;2022-07-17T13:51:04;5.50;;;3.13;;
69894;SDS011;57172;52.034;5.090;2022-07-17T13:53:32;5.78;;;3.17;;
69894;SDS011;57172;52.034;5.090;2022-07-17T13:55:59;7.88;;;3.70;;
69894;SDS011;57172;52.034;5.090;2022-07-17T13:58:25;4.90;;;3.27;;
69894;SDS011;57172;52.034;5.090;2022-07-17T14:00:52;4.68;;;3.22;;
69894;SDS011;57172;52.034;5.090;2022-07-17T14:03:19;5.78;;;3.50;;
69894;SDS011;57172;52.034;5.090;2022-07-17T14:05:48;5.78;;;3.70;;
69894;SDS011;57172;52.034;5.090;2022-07-17T14:08:15;6.50;;;3.50;;
69894;SDS011;57172;52.034;5.090;2022-07-17T14:10:42;5.67;;;3.40;;
69894;SDS011;57172;52.034;5.090;2022-07-17T14:13:09;6.55;;;3.38;;
69894;SDS011;57172;52.034;5.090;2022-07-17T14:15:36;5.55;;;3.20;;
69894;SDS011;57172;52.034;5.090;2022-07-17T14:18:03;5.32;;;3.17;;
69894;SDS011;57172;52.034;5.090;2022-07-17T14:20:30;6.95;;;3.42;;
69894;SDS011;57172;52.034;5.090;2022-07-17T14:22:57;6.53;;;3.30;;
69894;SDS011;57172;52.034;5.090;2022-07-17T14:25:24;6.10;;;3.35;;
69894;SDS011;57172;52.034;5.090;2022-07-17T14:27:50;7.60;;;3.20;;
69894;SDS011;57172;52.034;5.090;2022-07-17T14:30:17;5.38;;;3.00;;
69894;SDS011;57172;52.034;5.090;2022-07-17T14:32:47;7.18;;;3.13;;
69894;SDS011;57172;52.034;5.090;2022-07-17T14:35:14;6.40;;;3.50;;
69894;SDS011;57172;52.034;5.090;2022-07-17T14:37:40;8.00;;;3.50;;
69894;SDS011;57172;52.034;5.090;2022-07-17T14:40:10;6.43;;;3.50;;
69894;SDS011;57172;52.034;5.090;2022-07-17T14:42:38;6.80;;;3.72;;
69894;SDS011;57172;52.034;5.090;2022-07-17T14:45:06;6.28;;;3.60;;
69894;SDS011;57172;52.034;5.090;2022-07-17T14:47:34;7.17;;;3.43;;
69894;SDS011;57172;52.034;5.090;2022-07-17T14:50:01;5.63;;;3.83;;
69894;SDS011;57172;52.034;5.090;2022-07-17T14:52:29;7.07;;;4.03;;
69894;SDS011;57172;52.034;5.090;2022-07-17T14:54:56;5.93;;;3.88;;
69894;SDS011;57172;52.034;5.090;2022-07-17T14:57:22;6.07;;;3.42;;
69894;SDS011;57172;52.034;5.090;2022-07-17T14:59:49;6.53;;;3.30;;
69894;SDS011;57172;52.034;5.090;2022-07-17T15:02:16;6.35;;;4.07;;
69894;SDS011;57172;52.034;5.090;2022-07-17T15:04:44;7.65;;;5.00;;
69894;SDS011;57172;52.034;5.090;2022-07-17T15:07:11;6.65;;;3.85;;
69894;SDS011;57172;52.034;5.090;2022-07-17T15:09:38;5.72;;;3.50;;
69894;SDS011;57172;52.034;5.090;2022-07-17T15:12:05;9.10;;;4.40;;
69894;SDS011;57172;52.034;5.090;2022-07-17T15:14:32;6.38;;;4.50;;
69894;SDS011;57172;52.034;5.090;2022-07-17T15:16:59;8.18;;;4.05;;
69894;SDS011;57172;52.034;5.090;2022-07-17T15:19:26;6.85;;;4.30;;